createdAt,value
2019-03-17T00:00:07.005Z,82.42
2019-03-17T00:01:06.980Z,82.44
2019-03-17T00:02:06.958Z,82.09
2019-03-17T00:03:06.942Z,82.24
2019-03-17T00:04:06.991Z,82
2019-03-17T00:05:06.980Z,82.27
2019-03-17T00:06:08.129Z,82.27
2019-03-17T00:07:06.986Z,81.95
2019-03-17T00:08:06.952Z,81.88
2019-03-17T00:09:07.025Z,81.87
2019-03-17T00:10:06.941Z,82.49
2019-03-17T00:11:07.052Z,82.88
2019-03-17T00:12:06.971Z,82.64
2019-03-17T00:13:06.958Z,82.19
2019-03-17T00:14:06.937Z,81.87
2019-03-17T00:15:07.019Z,82.59
2019-03-17T00:16:06.980Z,83.35
2019-03-17T00:17:06.974Z,83.01
2019-03-17T00:18:06.939Z,82.91
2019-03-17T00:19:06.958Z,83.08
2019-03-17T00:20:06.935Z,83.12
2019-03-17T00:21:06.938Z,82.93
2019-03-17T00:22:06.997Z,83.55
2019-03-17T00:23:06.947Z,83.41
2019-03-17T00:24:06.986Z,83.06
2019-03-17T00:25:10.590Z,83.01
2019-03-17T00:26:06.940Z,83.11
2019-03-17T00:27:06.952Z,83.13
2019-03-17T00:28:06.922Z,83.17
2019-03-17T00:29:06.938Z,83.21
2019-03-17T00:30:07.023Z,82.55
2019-03-17T00:31:06.916Z,82.8
2019-03-17T00:32:06.921Z,83.09
2019-03-17T00:33:06.966Z,82.54
2019-03-17T00:34:07.222Z,82.89
2019-03-17T00:35:06.914Z,82.99
2019-03-17T00:36:06.953Z,82.6
2019-03-17T00:37:06.936Z,82.85
2019-03-17T00:38:06.899Z,82.36
2019-03-17T00:39:06.960Z,82.38
2019-03-17T00:40:06.937Z,82.75
2019-03-17T00:41:06.907Z,82.8
2019-03-17T00:42:07.035Z,82.94
2019-03-17T00:43:06.912Z,83.29
2019-03-17T00:44:06.913Z,82.78
2019-03-17T00:45:06.904Z,82.63
2019-03-17T00:46:06.925Z,82.89
2019-03-17T00:47:07.059Z,83.74
2019-03-17T00:48:06.964Z,83.94
2019-03-17T00:49:06.920Z,83.92
2019-03-17T00:50:06.916Z,83.7
2019-03-17T00:51:06.894Z,83.87
2019-03-17T00:52:06.895Z,83.36
2019-03-17T00:53:06.882Z,83.79
2019-03-17T00:54:06.892Z,83.69
2019-03-17T00:55:06.913Z,83.23
2019-03-17T00:56:06.969Z,83.49
2019-03-17T00:57:06.872Z,83.28
2019-03-17T00:58:06.866Z,82.84
2019-03-17T00:59:06.880Z,82.82
2019-03-17T01:00:06.875Z,83.15
2019-03-17T01:01:06.885Z,82.65
2019-03-17T01:02:06.867Z,82.89
2019-03-17T01:03:06.858Z,82.08
2019-03-17T01:04:06.855Z,82.11
2019-03-17T01:05:06.870Z,82.02
2019-03-17T01:06:06.857Z,81.79
2019-03-17T01:07:07.227Z,81.84
2019-03-17T01:08:06.852Z,81.27
2019-03-17T01:09:06.877Z,81.67
2019-03-17T01:10:06.856Z,81.28
2019-03-17T01:11:06.851Z,80.99
2019-03-17T01:12:07.773Z,80.96
2019-03-17T01:13:07.070Z,81.19
2019-03-17T01:14:06.899Z,80.92
2019-03-17T01:15:06.876Z,80.8
2019-03-17T01:16:06.856Z,80.69
2019-03-17T01:17:06.825Z,80.52
2019-03-17T01:18:06.834Z,80.44
2019-03-17T01:19:06.850Z,80.23
2019-03-17T01:20:06.848Z,80.38
2019-03-17T01:21:06.846Z,80.02
2019-03-17T01:22:06.835Z,80.28
2019-03-17T01:23:06.834Z,80.12
2019-03-17T01:24:06.843Z,80.33
2019-03-17T01:25:06.843Z,80.32
2019-03-17T01:26:06.826Z,80.19
2019-03-17T01:27:06.835Z,80.18
2019-03-17T01:28:06.822Z,80
2019-03-17T01:29:06.827Z,80.07
2019-03-17T01:30:06.833Z,80.16
2019-03-17T01:31:06.857Z,80.37
2019-03-17T01:32:06.859Z,80.18
2019-03-17T01:33:06.821Z,80.25
2019-03-17T01:34:06.853Z,80.23
2019-03-17T01:35:10.526Z,80.45
2019-03-17T01:36:06.814Z,80.5
2019-03-17T01:37:06.819Z,80.35
2019-03-17T01:38:06.819Z,80.61
2019-03-17T01:39:06.887Z,80.64
2019-03-17T01:40:06.846Z,80.44
2019-03-17T01:41:06.799Z,80.42
2019-03-17T01:42:06.809Z,80.46
2019-03-17T01:43:06.797Z,80.57
2019-03-17T01:44:06.798Z,80.59
2019-03-17T01:45:06.826Z,80.63
2019-03-17T01:46:06.805Z,80.82
2019-03-17T01:47:06.798Z,80.84
2019-03-17T01:48:06.807Z,80.83
2019-03-17T01:49:06.799Z,80.61
2019-03-17T01:50:06.787Z,80.7
2019-03-17T01:51:06.788Z,80.97
2019-03-17T01:52:06.810Z,80.94
2019-03-17T01:53:06.787Z,81.03
2019-03-17T01:54:06.826Z,80.96
2019-03-17T01:55:06.862Z,81.02
2019-03-17T01:56:06.804Z,81.18
2019-03-17T01:57:06.771Z,81
2019-03-17T01:58:06.772Z,80.87
2019-03-17T01:59:06.802Z,80.99
2019-03-17T02:00:06.806Z,81.12
2019-03-17T02:01:06.806Z,81.15
2019-03-17T02:02:06.787Z,80.9
2019-03-17T02:03:06.771Z,80.81
2019-03-17T02:04:07.808Z,81.17
2019-03-17T02:05:06.783Z,81.29
2019-03-17T02:06:06.838Z,81.36
2019-03-17T02:07:06.799Z,81.38
2019-03-17T02:08:06.786Z,81.4
2019-03-17T02:09:06.782Z,81.49
2019-03-17T02:10:06.767Z,81.22
2019-03-17T02:11:06.776Z,81.12
2019-03-17T02:12:06.828Z,81.28
2019-03-17T02:13:06.757Z,81.2
2019-03-17T02:14:06.788Z,81.27
2019-03-17T02:15:06.757Z,81.56
2019-03-17T02:16:06.781Z,81.49
2019-03-17T02:17:06.781Z,81.23
2019-03-17T02:18:06.769Z,81.13
2019-03-17T02:19:06.754Z,81.65
2019-03-17T02:20:06.807Z,81.8
2019-03-17T02:21:06.743Z,81.53
2019-03-17T02:22:06.794Z,81.29
2019-03-17T02:23:06.808Z,81.23
2019-03-17T02:24:06.764Z,81.75
2019-03-17T02:25:06.768Z,82.04
2019-03-17T02:26:06.770Z,82.04
2019-03-17T02:27:06.770Z,81.83
2019-03-17T02:28:06.761Z,81.95
2019-03-17T02:29:06.765Z,82.25
2019-03-17T02:30:06.751Z,82.37
2019-03-17T02:31:06.776Z,82.16
2019-03-17T02:32:06.747Z,82.06
2019-03-17T02:33:06.798Z,82.03
2019-03-17T02:34:06.742Z,82.41
2019-03-17T02:35:06.738Z,82.45
2019-03-17T02:36:06.737Z,82.11
2019-03-17T02:37:06.748Z,81.88
2019-03-17T02:38:06.904Z,82.05
2019-03-17T02:39:06.837Z,82.04
2019-03-17T02:40:06.781Z,81.97
2019-03-17T02:41:06.783Z,82.24
2019-03-17T02:42:06.804Z,82.34
2019-03-17T02:43:06.765Z,82.22
2019-03-17T02:44:06.763Z,81.88
2019-03-17T02:45:06.722Z,81.71
2019-03-17T02:46:06.740Z,81.67
2019-03-17T02:47:06.721Z,81.94
2019-03-17T02:48:06.751Z,81.84
2019-03-17T02:49:06.727Z,81.63
2019-03-17T02:50:06.748Z,81.79
2019-03-17T02:51:06.713Z,81.65
2019-03-17T02:52:06.710Z,81.72
2019-03-17T02:53:06.747Z,81.62
2019-03-17T02:54:06.775Z,82.08
2019-03-17T02:55:06.731Z,82.03
2019-03-17T02:56:06.723Z,81.94
2019-03-17T02:57:06.747Z,82.01
2019-03-17T02:58:06.708Z,81.78
2019-03-17T02:59:06.705Z,81.74
2019-03-17T03:00:06.755Z,82.09
2019-03-17T03:01:06.719Z,82.04
2019-03-17T03:02:06.709Z,81.86
2019-03-17T03:03:06.725Z,81.79
2019-03-17T03:04:06.745Z,82
2019-03-17T03:05:06.729Z,82.06
2019-03-17T03:06:06.749Z,82.06
2019-03-17T03:07:06.742Z,81.92
2019-03-17T03:08:06.726Z,81.94
2019-03-17T03:09:06.713Z,81.96
2019-03-17T03:10:06.701Z,81.63
2019-03-17T03:11:06.722Z,81.5
2019-03-17T03:12:06.757Z,81.54
2019-03-17T03:13:06.725Z,81.61
2019-03-17T03:14:06.710Z,82.12
2019-03-17T03:15:06.684Z,82.36
2019-03-17T03:16:06.700Z,82.17
2019-03-17T03:17:06.710Z,82.5
2019-03-17T03:18:06.705Z,82.13
2019-03-17T03:19:06.677Z,82.57
2019-03-17T03:20:06.836Z,82.67
2019-03-17T03:21:06.765Z,82.33
2019-03-17T03:22:06.709Z,82.52
2019-03-17T03:23:06.665Z,82.46
2019-03-17T03:24:06.680Z,82.63
2019-03-17T03:25:06.675Z,82.98
2019-03-17T03:26:06.670Z,82.82
2019-03-17T03:27:06.692Z,83.11
2019-03-17T03:28:06.702Z,83.38
2019-03-17T03:29:06.670Z,83.14
2019-03-17T03:30:06.816Z,83.21
2019-03-17T03:31:06.772Z,83.22
2019-03-17T03:32:06.699Z,83.35
2019-03-17T03:33:06.717Z,83.13
2019-03-17T03:34:06.674Z,83.35
2019-03-17T03:35:06.697Z,83.22
2019-03-17T03:36:12.334Z,83.22
2019-03-17T03:37:06.666Z,83.27
2019-03-17T03:38:06.658Z,83.37
2019-03-17T03:39:06.765Z,83
2019-03-17T03:40:06.717Z,83.02
2019-03-17T03:41:06.677Z,83.17
2019-03-17T03:42:06.661Z,82.96
2019-03-17T03:43:06.819Z,82.84
2019-03-17T03:44:06.667Z,82.64
2019-03-17T03:45:06.689Z,82.59
2019-03-17T03:46:06.665Z,83.05
2019-03-17T03:47:06.659Z,83.48
2019-03-17T03:48:06.946Z,83.06
2019-03-17T03:49:06.665Z,82.99
2019-03-17T03:50:06.676Z,83.21
2019-03-17T03:51:06.706Z,82.95
2019-03-17T03:52:06.740Z,83.23
2019-03-17T03:53:06.922Z,83.04
2019-03-17T03:54:06.654Z,82.9
2019-03-17T03:55:06.764Z,83.04
2019-03-17T03:56:06.642Z,83.04
2019-03-17T03:57:06.663Z,83.24
2019-03-17T03:58:06.666Z,82.82
2019-03-17T03:59:06.666Z,83.07
2019-03-17T04:00:06.632Z,82.84
2019-03-17T04:01:06.625Z,83.06
2019-03-17T04:02:06.615Z,83.01
2019-03-17T04:03:06.628Z,83.15
2019-03-17T04:04:06.722Z,83.11
2019-03-17T04:05:06.997Z,82.64
2019-03-17T04:06:06.642Z,82.74
2019-03-17T04:07:06.623Z,82.91
2019-03-17T04:08:06.643Z,82.87
2019-03-17T04:09:06.608Z,82.83
2019-03-17T04:10:06.642Z,82.83
2019-03-17T04:11:06.593Z,83.04
2019-03-17T04:12:06.637Z,82.89
2019-03-17T04:13:06.651Z,82.78
2019-03-17T04:14:06.626Z,83.01
2019-03-17T04:15:06.599Z,83.41
2019-03-17T04:16:06.618Z,83.68
2019-03-17T04:17:06.630Z,83.66
2019-03-17T04:18:06.589Z,83.52
2019-03-17T04:19:06.654Z,83.74
2019-03-17T04:20:06.603Z,83.53
2019-03-17T04:21:06.651Z,83.27
2019-03-17T04:22:06.727Z,83.17
2019-03-17T04:23:06.598Z,83.74
2019-03-17T04:24:06.605Z,83.37
2019-03-17T04:25:06.582Z,83.59
2019-03-17T04:26:06.642Z,83.27
2019-03-17T04:27:06.615Z,83.08
2019-03-17T04:28:06.584Z,83.4
2019-03-17T04:29:06.599Z,83.34
2019-03-17T04:30:06.586Z,83.91
2019-03-17T04:31:06.605Z,83.6
2019-03-17T04:32:06.572Z,83.92
2019-03-17T04:33:06.691Z,84.1
2019-03-17T04:34:06.671Z,83.83
2019-03-17T04:35:06.587Z,83.76
2019-03-17T04:36:06.581Z,83.53
2019-03-17T04:37:06.559Z,83.31
2019-03-17T04:38:06.618Z,83.53
2019-03-17T04:39:06.563Z,83.52
2019-03-17T04:40:06.626Z,83.31
2019-03-17T04:41:06.595Z,83.44
2019-03-17T04:42:06.573Z,83.25
2019-03-17T04:43:06.613Z,83.64
2019-03-17T04:44:06.566Z,83.71
2019-03-17T04:45:06.569Z,83.36
2019-03-17T04:46:06.554Z,83.58
2019-03-17T04:47:06.546Z,83.54
2019-03-17T04:48:06.564Z,83.45
2019-03-17T04:49:06.559Z,83.45
2019-03-17T04:50:06.550Z,83.25
2019-03-17T04:51:06.545Z,83.52
2019-03-17T04:52:06.539Z,83.52
2019-03-17T04:53:06.547Z,83.5
2019-03-17T04:54:06.578Z,83.52
2019-03-17T04:55:06.618Z,83.54
2019-03-17T04:56:08.356Z,83.71
2019-03-17T04:57:06.549Z,83.61
2019-03-17T04:58:06.557Z,84.27
2019-03-17T04:59:06.544Z,83.77
2019-03-17T05:00:06.544Z,83.95
2019-03-17T05:01:06.521Z,83.85
2019-03-17T05:02:06.513Z,83.88
2019-03-17T05:03:06.558Z,83.83
2019-03-17T05:04:06.529Z,83.79
2019-03-17T05:05:06.534Z,83.54
2019-03-17T05:06:06.524Z,83.9
2019-03-17T05:07:06.534Z,83.95
2019-03-17T05:08:06.519Z,83.9
2019-03-17T05:09:06.502Z,84.12
2019-03-17T05:10:06.505Z,83.68
2019-03-17T05:11:06.525Z,83.64
2019-03-17T05:12:06.521Z,84.53
2019-03-17T05:13:06.499Z,84.36
2019-03-17T05:14:06.533Z,84.67
2019-03-17T05:15:06.536Z,84.55
2019-03-17T05:16:06.517Z,84.75
2019-03-17T05:17:06.648Z,84.55
2019-03-17T05:18:06.522Z,84.78
2019-03-17T05:19:06.499Z,84.53
2019-03-17T05:20:06.492Z,84.89
2019-03-17T05:21:06.494Z,84.57
2019-03-17T05:22:06.507Z,84.34
2019-03-17T05:23:06.579Z,84.36
2019-03-17T05:24:06.492Z,84.7
2019-03-17T05:25:06.508Z,84.62
2019-03-17T05:26:06.505Z,84.43
2019-03-17T05:27:06.490Z,84.46
2019-03-17T05:28:06.489Z,84.19
2019-03-17T05:29:06.492Z,84.26
2019-03-17T05:30:06.481Z,83.9
2019-03-17T05:31:06.491Z,84.05
2019-03-17T05:32:06.494Z,83.99
2019-03-17T05:33:06.578Z,83.84
2019-03-17T05:34:06.475Z,83.85
2019-03-17T05:35:06.487Z,83.23
2019-03-17T05:36:06.488Z,83.02
2019-03-17T05:37:07.301Z,82.99
2019-03-17T05:38:06.510Z,82.76
2019-03-17T05:39:06.554Z,82.63
2019-03-17T05:40:06.502Z,82.43
2019-03-17T05:41:06.485Z,82.1
2019-03-17T05:42:06.481Z,81.84
2019-03-17T05:43:06.470Z,81.51
2019-03-17T05:44:06.473Z,80.9
2019-03-17T05:45:06.475Z,81.01
2019-03-17T05:46:06.474Z,81.25
2019-03-17T05:47:06.514Z,81.44
2019-03-17T05:48:06.485Z,81.59
2019-03-17T05:49:06.465Z,81.47
2019-03-17T05:50:06.466Z,81.69
2019-03-17T05:51:06.550Z,81.52
2019-03-17T05:52:06.476Z,81.17
2019-03-17T05:53:06.494Z,81.05
2019-03-17T05:54:06.455Z,80.82
2019-03-17T05:55:06.441Z,80.19
2019-03-17T05:56:06.459Z,79
2019-03-17T05:57:06.469Z,77.78
2019-03-17T05:58:06.458Z,77.51
2019-03-17T05:59:06.457Z,77.56
2019-03-17T06:00:06.529Z,77.47
2019-03-17T06:01:06.451Z,77.24
2019-03-17T06:02:06.433Z,77
2019-03-17T06:03:06.436Z,76.85
2019-03-17T06:04:06.455Z,76.98
2019-03-17T06:05:06.476Z,77.01
2019-03-17T06:06:06.461Z,76.91
2019-03-17T06:07:19.308Z,77.26
2019-03-17T06:08:06.452Z,77.34
2019-03-17T06:09:06.419Z,77.53
2019-03-17T06:10:06.477Z,77.48
2019-03-17T06:11:06.466Z,77.53
2019-03-17T06:12:06.459Z,77.3
2019-03-17T06:13:06.430Z,77.27
2019-03-17T06:14:06.407Z,76.96
2019-03-17T06:15:06.460Z,76.91
2019-03-17T06:16:06.425Z,76.98
2019-03-17T06:17:06.439Z,76.73
2019-03-17T06:18:06.494Z,76.57
2019-03-17T06:19:06.407Z,76.49
2019-03-17T06:20:06.403Z,76.17
2019-03-17T06:21:06.707Z,76
2019-03-17T06:22:06.611Z,75.49
2019-03-17T06:23:06.423Z,75.42
2019-03-17T06:24:06.435Z,74.93
2019-03-17T06:25:06.460Z,74.87
2019-03-17T06:26:06.442Z,74.85
2019-03-17T06:27:06.453Z,74.5
2019-03-17T06:28:06.413Z,74.44
2019-03-17T06:29:06.413Z,74.79
2019-03-17T06:30:06.434Z,74.8
2019-03-17T06:31:06.382Z,74.81
2019-03-17T06:32:06.383Z,74.52
2019-03-17T06:33:06.400Z,74.51
2019-03-17T06:34:06.385Z,74.29
2019-03-17T06:35:06.447Z,74.58
2019-03-17T06:36:06.408Z,74
2019-03-17T06:37:06.431Z,74.14
2019-03-17T06:38:06.391Z,74.13
2019-03-17T06:39:06.387Z,73.74
2019-03-17T06:40:06.386Z,74.11
2019-03-17T06:41:06.418Z,74.22
2019-03-17T06:42:06.401Z,74.14
2019-03-17T06:43:06.567Z,74.04
2019-03-17T06:44:06.562Z,73.83
2019-03-17T06:45:06.424Z,73.8
2019-03-17T06:46:06.400Z,73.8
2019-03-17T06:47:06.429Z,73.32
2019-03-17T06:48:06.374Z,73.5
2019-03-17T06:49:06.364Z,73.03
2019-03-17T06:50:06.394Z,73
2019-03-17T06:51:06.378Z,72.81
2019-03-17T06:52:06.385Z,72.42
2019-03-17T06:53:06.390Z,71.99
2019-03-17T06:54:06.667Z,71.32
2019-03-17T06:55:06.355Z,71.21
2019-03-17T06:56:06.377Z,71.2
2019-03-17T06:57:06.362Z,71.22
2019-03-17T06:58:06.372Z,70.81
2019-03-17T06:59:06.385Z,70.79
2019-03-17T07:00:06.436Z,70.49
2019-03-17T07:01:06.402Z,69.78
2019-03-17T07:02:06.400Z,69.31
2019-03-17T07:03:06.408Z,69.36
2019-03-17T07:04:06.389Z,68.81
2019-03-17T07:05:06.484Z,68.81
2019-03-17T07:06:06.354Z,68.08
2019-03-17T07:07:06.330Z,68.3
2019-03-17T07:08:06.342Z,68.21
2019-03-17T07:09:06.349Z,66.75
2019-03-17T07:10:06.345Z,67.37
2019-03-17T07:11:06.360Z,66.99
2019-03-17T07:12:06.332Z,67.35
2019-03-17T07:13:06.339Z,67.33
2019-03-17T07:14:06.330Z,67.15
2019-03-17T07:15:06.411Z,67.34
2019-03-17T07:16:06.463Z,67.29
2019-03-17T07:17:06.434Z,66.71
2019-03-17T07:18:06.335Z,66.68
2019-03-17T07:19:06.370Z,67.04
2019-03-17T07:20:06.350Z,66.61
2019-03-17T07:21:06.336Z,66.27
2019-03-17T07:22:06.338Z,65.41
2019-03-17T07:23:06.371Z,65.37
2019-03-17T07:24:06.353Z,65.79
2019-03-17T07:25:06.440Z,65.95
2019-03-17T07:26:06.433Z,66.42
2019-03-17T07:27:06.497Z,65.89
2019-03-17T07:28:06.319Z,65.93
2019-03-17T07:29:06.331Z,64.96
2019-03-17T07:30:06.417Z,64.87
2019-03-17T07:31:06.352Z,64.35
2019-03-17T07:32:06.322Z,64.38
2019-03-17T07:33:06.337Z,64.37
2019-03-17T07:34:06.342Z,64.44
2019-03-17T07:35:06.320Z,64.67
2019-03-17T07:36:06.342Z,64.38
2019-03-17T07:37:06.377Z,64.51
2019-03-17T07:38:06.324Z,64.03
2019-03-17T07:39:12.686Z,64.5
2019-03-17T07:40:06.328Z,64.14
2019-03-17T07:41:06.402Z,64.81
2019-03-17T07:42:06.334Z,64.07
2019-03-17T07:43:06.383Z,64.71
2019-03-17T07:44:06.297Z,64.81
2019-03-17T07:45:06.300Z,65.06
2019-03-17T07:46:06.284Z,65.49
2019-03-17T07:47:06.392Z,65.7
2019-03-17T07:48:06.431Z,65.1
2019-03-17T07:49:06.380Z,65.5
2019-03-17T07:50:06.386Z,64.71
2019-03-17T07:51:06.314Z,65.09
2019-03-17T07:52:06.293Z,65.75
2019-03-17T07:53:06.287Z,65.67
2019-03-17T07:54:06.316Z,64.94
2019-03-17T07:55:06.320Z,64.72
2019-03-17T07:56:06.316Z,64.67
2019-03-17T07:57:06.431Z,64.83
2019-03-17T07:58:06.684Z,63.64
2019-03-17T07:59:06.392Z,63.78
2019-03-17T08:00:06.296Z,63.55
2019-03-17T08:01:06.255Z,62.9
2019-03-17T08:02:06.285Z,62.77
2019-03-17T08:03:06.325Z,63.61
2019-03-17T08:04:06.273Z,63.9
2019-03-17T08:05:06.295Z,63.15
2019-03-17T08:06:06.299Z,63.1
2019-03-17T08:07:06.271Z,63.45
2019-03-17T08:08:10.239Z,63.42
2019-03-17T08:09:06.270Z,63.69
2019-03-17T08:10:06.279Z,63.7
2019-03-17T08:11:06.295Z,63.7
2019-03-17T08:12:06.281Z,64.13
2019-03-17T08:13:06.348Z,63.85
2019-03-17T08:14:06.253Z,63.88
2019-03-17T08:15:06.257Z,63.01
2019-03-17T08:16:06.251Z,63.15
2019-03-17T08:17:06.252Z,63.6
2019-03-17T08:18:06.264Z,63.03
2019-03-17T08:19:06.390Z,62.7
2019-03-17T08:20:06.248Z,62.61
2019-03-17T08:21:06.255Z,63.6
2019-03-17T08:22:06.232Z,64.11
2019-03-17T08:23:06.250Z,63.82
2019-03-17T08:24:06.251Z,63.94
2019-03-17T08:25:06.257Z,64.01
2019-03-17T08:26:06.226Z,63.95
2019-03-17T08:27:06.244Z,63.96
2019-03-17T08:28:06.302Z,63.8
2019-03-17T08:29:06.226Z,63.17
2019-03-17T08:30:06.320Z,63.75
2019-03-17T08:31:06.255Z,64.34
2019-03-17T08:32:06.227Z,64.55
2019-03-17T08:33:06.223Z,63.88
2019-03-17T08:34:06.215Z,63.93
2019-03-17T08:35:06.377Z,63.85
2019-03-17T08:36:06.282Z,62.97
2019-03-17T08:37:06.235Z,63.45
2019-03-17T08:38:06.228Z,63.21
2019-03-17T08:39:06.252Z,63.73
2019-03-17T08:40:06.547Z,63.81
2019-03-17T08:41:06.273Z,63.75
2019-03-17T08:42:06.240Z,63.98
2019-03-17T08:43:06.226Z,63.94
2019-03-17T08:44:06.229Z,63.63
2019-03-17T08:45:06.252Z,64.11
2019-03-17T08:46:06.246Z,64.16
2019-03-17T08:47:06.235Z,63.5
2019-03-17T08:48:06.196Z,62.89
2019-03-17T08:49:06.238Z,62.62
2019-03-17T08:50:06.265Z,62.99
2019-03-17T08:51:06.249Z,62.93
2019-03-17T08:52:06.216Z,63.24
2019-03-17T08:53:06.238Z,62.86
2019-03-17T08:54:06.208Z,62.7
2019-03-17T08:55:06.289Z,62.57
2019-03-17T08:56:06.206Z,62.69
2019-03-17T08:57:06.193Z,63.08
2019-03-17T08:58:06.193Z,62.47
2019-03-17T08:59:06.178Z,63.17
2019-03-17T09:00:06.192Z,62.89
2019-03-17T09:01:06.222Z,63.17
2019-03-17T09:02:06.313Z,63.78
2019-03-17T09:03:06.194Z,63.68
2019-03-17T09:04:06.182Z,63.55
2019-03-17T09:05:06.203Z,63.48
2019-03-17T09:06:06.178Z,63.6
2019-03-17T09:07:06.181Z,63.76
2019-03-17T09:08:06.244Z,63.89
2019-03-17T09:09:06.185Z,63.23
2019-03-17T09:10:06.209Z,63.38
2019-03-17T09:11:06.167Z,63.11
2019-03-17T09:12:06.164Z,63.04
2019-03-17T09:13:06.172Z,62.61
2019-03-17T09:14:06.177Z,62.72
2019-03-17T09:15:06.183Z,63.22
2019-03-17T09:16:06.167Z,63.64
2019-03-17T09:17:15.024Z,63.54
2019-03-17T09:18:06.196Z,63.41
2019-03-17T09:19:06.155Z,63.27
2019-03-17T09:20:06.179Z,62.98
2019-03-17T09:21:06.178Z,63.13
2019-03-17T09:22:06.147Z,63.42
2019-03-17T09:23:06.184Z,63.15
2019-03-17T09:24:17.836Z,63.66
2019-03-17T09:25:06.171Z,63.51
2019-03-17T09:26:06.161Z,63.74
2019-03-17T09:27:06.133Z,63.4
2019-03-17T09:28:06.169Z,64.01
2019-03-17T09:29:06.285Z,63.76
2019-03-17T09:30:06.209Z,63.52
2019-03-17T09:31:07.910Z,63.98
2019-03-17T09:32:06.138Z,64.16
2019-03-17T09:33:06.178Z,64.54
2019-03-17T09:34:06.148Z,64.83
2019-03-17T09:35:06.151Z,65.25
2019-03-17T09:36:06.133Z,65.02
2019-03-17T09:37:06.232Z,64.88
2019-03-17T09:38:06.147Z,64.68
2019-03-17T09:39:06.173Z,64.49
2019-03-17T09:40:06.162Z,64.71
2019-03-17T09:41:06.135Z,64.92
2019-03-17T09:42:06.125Z,64.8
2019-03-17T09:43:06.184Z,64.43
2019-03-17T09:44:06.269Z,64.61
2019-03-17T09:45:06.673Z,64.78
2019-03-17T09:46:06.196Z,65.01
2019-03-17T09:47:06.238Z,65
2019-03-17T09:48:06.213Z,63.94
2019-03-17T09:49:06.143Z,64.05
2019-03-17T09:50:06.115Z,64.07
2019-03-17T09:51:06.175Z,63.98
2019-03-17T09:52:06.125Z,64.14
2019-03-17T09:53:06.116Z,64.91
2019-03-17T09:54:06.253Z,65
2019-03-17T09:55:06.109Z,65.02
2019-03-17T09:56:06.117Z,65.06
2019-03-17T09:57:06.245Z,65.28
2019-03-17T09:58:06.101Z,65.35
2019-03-17T09:59:06.167Z,65.81
2019-03-17T10:00:06.105Z,66.08
2019-03-17T10:01:06.087Z,65.96
2019-03-17T10:02:06.159Z,66.19
2019-03-17T10:03:06.095Z,66.12
2019-03-17T10:04:06.135Z,65.55
2019-03-17T10:05:06.105Z,65.42
2019-03-17T10:06:06.168Z,65.71
2019-03-17T10:07:06.632Z,65.42
2019-03-17T10:08:06.254Z,65.91
2019-03-17T10:09:06.113Z,66.23
2019-03-17T10:10:06.090Z,66.35
2019-03-17T10:11:06.195Z,66.57
2019-03-17T10:12:06.083Z,66.23
2019-03-17T10:13:06.087Z,66.16
2019-03-17T10:14:06.085Z,65.74
2019-03-17T10:15:06.102Z,66.17
2019-03-17T10:16:06.102Z,66.19
2019-03-17T10:17:06.102Z,66.35
2019-03-17T10:18:06.120Z,66.15
2019-03-17T10:19:06.101Z,66.05
2019-03-17T10:20:06.078Z,66
2019-03-17T10:21:06.073Z,66.21
2019-03-17T10:22:06.064Z,66.03
2019-03-17T10:23:06.098Z,65.89
2019-03-17T10:24:06.097Z,65.73
2019-03-17T10:25:06.094Z,65.99
2019-03-17T10:26:06.076Z,66.08
2019-03-17T10:27:06.161Z,66.52
2019-03-17T10:28:06.061Z,66.35
2019-03-17T10:29:06.217Z,66.02
2019-03-17T10:30:06.102Z,66.3
2019-03-17T10:31:06.125Z,66.47
2019-03-17T10:32:06.111Z,66.68
2019-03-17T10:33:06.095Z,66.81
2019-03-17T10:34:06.107Z,66.45
2019-03-17T10:35:06.127Z,66.59
2019-03-17T10:36:06.063Z,66.7
2019-03-17T10:37:06.103Z,66.95
2019-03-17T10:38:06.062Z,66.68
2019-03-17T10:39:13.012Z,66.73
2019-03-17T10:40:06.079Z,66.61
2019-03-17T10:41:06.126Z,66.68
2019-03-17T10:42:06.140Z,66.87
2019-03-17T10:43:06.072Z,66.93
2019-03-17T10:44:06.103Z,67.01
2019-03-17T10:45:06.058Z,67.22
2019-03-17T10:46:06.065Z,67
2019-03-17T10:47:06.071Z,66.97
2019-03-17T10:48:06.059Z,67.26
2019-03-17T10:49:06.062Z,66.98
2019-03-17T10:50:06.095Z,67.05
2019-03-17T10:51:06.277Z,67.03
2019-03-17T10:52:06.136Z,67.21
2019-03-17T10:53:06.084Z,66.85
2019-03-17T10:54:06.067Z,66.61
2019-03-17T10:55:06.040Z,66.95
2019-03-17T10:56:06.066Z,67.23
2019-03-17T10:57:06.098Z,66
2019-03-17T10:58:06.054Z,66.47
2019-03-17T10:59:06.016Z,66.01
2019-03-17T11:00:06.087Z,66.12
2019-03-17T11:01:06.125Z,66.02
2019-03-17T11:02:06.075Z,65.86
2019-03-17T11:03:06.043Z,66.06
2019-03-17T11:04:06.041Z,65.82
2019-03-17T11:05:06.076Z,65.67
2019-03-17T11:06:06.207Z,65.48
2019-03-17T11:07:06.087Z,65.65
2019-03-17T11:08:06.046Z,66.05
2019-03-17T11:09:06.048Z,65.84
2019-03-17T11:10:06.147Z,65.22
2019-03-17T11:11:06.039Z,65.28
2019-03-17T11:12:06.106Z,64.91
2019-03-17T11:13:06.130Z,65.41
2019-03-17T11:14:06.040Z,65.69
2019-03-17T11:15:06.102Z,65.52
2019-03-17T11:16:06.028Z,65.46
2019-03-17T11:17:06.142Z,65.09
2019-03-17T11:18:06.051Z,65.3
2019-03-17T11:19:05.998Z,65.33
2019-03-17T11:20:06.103Z,64.5
2019-03-17T11:21:06.031Z,64.55
2019-03-17T11:22:06.117Z,64.36
2019-03-17T11:23:06.047Z,64.83
2019-03-17T11:24:06.037Z,64.59
2019-03-17T11:25:06.016Z,65.01
2019-03-17T11:26:06.021Z,65.33
2019-03-17T11:27:06.326Z,65.71
2019-03-17T11:28:05.999Z,65.83
2019-03-17T11:29:06.098Z,65.73
2019-03-17T11:30:06.014Z,66.08
2019-03-17T11:31:06.028Z,65.79
2019-03-17T11:32:06.937Z,65.98
2019-03-17T11:33:06.015Z,65.42
2019-03-17T11:34:06.040Z,65.38
2019-03-17T11:35:05.995Z,65.81
2019-03-17T11:36:06.453Z,65.61
2019-03-17T11:37:05.984Z,65.61
2019-03-17T11:38:05.993Z,65.78
2019-03-17T11:39:05.975Z,65.5
2019-03-17T11:40:06.054Z,65.96
2019-03-17T11:41:06.019Z,65.77
2019-03-17T11:42:05.975Z,65.89
2019-03-17T11:43:05.965Z,65.87
2019-03-17T11:44:05.991Z,65.64
2019-03-17T11:45:05.983Z,65.39
2019-03-17T11:46:05.981Z,65.97
2019-03-17T11:47:05.986Z,65.92
2019-03-17T11:48:06.082Z,66.3
2019-03-17T11:49:05.959Z,65.99
2019-03-17T11:50:05.959Z,66.2
2019-03-17T11:51:05.995Z,66.09
2019-03-17T11:52:05.980Z,66.42
2019-03-17T11:53:05.997Z,66.82
2019-03-17T11:54:06.028Z,67.06
2019-03-17T11:55:05.947Z,66.76
2019-03-17T11:56:06.101Z,66.93
2019-03-17T11:57:05.962Z,67.29
2019-03-17T11:58:05.963Z,67.19
2019-03-17T11:59:05.981Z,67.55
2019-03-17T12:00:05.957Z,67.76
2019-03-17T12:01:06.027Z,68
2019-03-17T12:02:05.971Z,68.15
2019-03-17T12:03:05.941Z,68.37
2019-03-17T12:04:05.950Z,68.38
2019-03-17T12:05:05.940Z,68.61
2019-03-17T12:06:06.002Z,68.77
2019-03-17T12:07:05.963Z,68.94
2019-03-17T12:08:06.305Z,69.24
2019-03-17T12:09:05.986Z,69.33
2019-03-17T12:10:06.067Z,69.55
2019-03-17T12:11:06.013Z,69.9
2019-03-17T12:12:05.955Z,70.11
2019-03-17T12:13:06.015Z,70.01
2019-03-17T12:14:05.944Z,70.27
2019-03-17T12:15:05.934Z,70.68
2019-03-17T12:16:05.994Z,71.15
2019-03-17T12:17:06.174Z,71.53
2019-03-17T12:18:05.929Z,72.07
2019-03-17T12:19:05.909Z,72.77
2019-03-17T12:20:05.976Z,72.92
2019-03-17T12:21:05.934Z,73.59
2019-03-17T12:22:09.842Z,73.57
2019-03-17T12:23:06.010Z,73.67
2019-03-17T12:24:05.915Z,73.86
2019-03-17T12:25:05.952Z,74.34
2019-03-17T12:26:05.950Z,74.48
2019-03-17T12:27:05.925Z,74.86
2019-03-17T12:28:05.915Z,75.02
2019-03-17T12:29:05.947Z,74.91
2019-03-17T12:30:05.910Z,74.78
2019-03-17T12:31:05.927Z,75.06
2019-03-17T12:32:05.947Z,75.55
2019-03-17T12:33:05.992Z,75.48
2019-03-17T12:34:05.903Z,75.78
2019-03-17T12:35:05.893Z,76.01
2019-03-17T12:36:05.909Z,76.35
2019-03-17T12:37:05.904Z,76.45
2019-03-17T12:38:05.945Z,76.03
2019-03-17T12:39:06.117Z,75.99
2019-03-17T12:40:05.984Z,76.21
2019-03-17T12:41:05.914Z,77.51
2019-03-17T12:42:05.913Z,77.55
2019-03-17T12:43:05.918Z,77.48
2019-03-17T12:44:06.780Z,77.48
2019-03-17T12:45:05.929Z,77.22
2019-03-17T12:46:05.899Z,76.57
2019-03-17T12:47:05.890Z,77.55
2019-03-17T12:48:05.924Z,77.74
2019-03-17T12:49:05.876Z,76.41
2019-03-17T12:50:05.909Z,75.73
2019-03-17T12:51:05.875Z,76.27
2019-03-17T12:52:06.390Z,76.79
2019-03-17T12:53:08.237Z,75.75
2019-03-17T12:54:05.898Z,75.89
2019-03-17T12:55:05.888Z,75.59
2019-03-17T12:56:05.904Z,75.77